Time;durP1;ratioP1;P1;durP2;ratioP2;P2;SDS_P1;SDS_P2;PMS_P1;PMS_P2;Temp;Humidity;BMP_temperature;BMP_pressure;BME280_temperature;BME280_humidity;BME280_pressure;Samples;Min_cycle;Max_cycle;Signal;HPM_P1;HPM_P2
2023/12/08 00:01:55;;;;;;;41.00;20.02;;;3.10;72.40;;;;;;4979363;28;20098;-65
2023/12/08 00:04:21;;;;;;;50.38;23.55;;;3.10;72.50;;;;;;4979280;28;20034;-64
2023/12/08 00:06:47;;;;;;;44.20;23.25;;;3.10;72.60;;;;;;4978917;28;20507;-64
2023/12/08 00:09:13;;;;;;;43.08;22.67;;;3.20;72.50;;;;;;4979088;28;20085;-64
2023/12/08 00:11:39;;;;;;;44.35;22.02;;;3.10;72.50;;;;;;4979312;28;20110;-64
2023/12/08 00:14:06;;;;;;;36.05;20.05;;;3.20;72.50;;;;;;4979116;28;20488;-64
2023/12/08 00:16:32;;;;;;;40.60;20.52;;;3.10;72.40;;;;;;4979555;28;20041;-64
2023/12/08 00:18:58;;;;;;;37.75;19.65;;;3.10;72.40;;;;;;4978717;28;20035;-64
2023/12/08 00:21:25;;;;;;;37.08;21.05;;;3.10;72.60;;;;;;4978618;28;20371;-64
2023/12/08 00:23:52;;;;;;;48.65;25.20;;;3.20;72.70;;;;;;4978619;28;20031;-64
2023/12/08 00:26:18;;;;;;;45.40;23.63;;;3.10;72.70;;;;;;4978840;28;20034;-64
2023/12/08 00:28:44;;;;;;;49.47;25.65;;;3.10;72.70;;;;;;4961520;28;20406;-64
2023/12/08 00:31:11;;;;;;;41.95;22.55;;;3.10;72.90;;;;;;4978686;28;20035;-65
2023/12/08 00:33:38;;;;;;;48.33;24.35;;;3.10;72.80;;;;;;4978834;28;20050;-64
2023/12/08 00:36:15;;;;;;;42.08;23.02;;;3.10;73.00;;;;;;4979004;28;20026;-64
2023/12/08 00:38:41;;;;;;;44.38;23.77;;;3.00;72.80;;;;;;4978382;28;20411;-64
2023/12/08 00:41:08;;;;;;;45.78;24.95;;;3.00;73.10;;;;;;4978572;28;20109;-64
2023/12/08 00:43:34;;;;;;;34.50;20.08;;;3.00;73.20;;;;;;4978285;28;20027;-64
2023/12/08 00:46:00;;;;;;;37.83;21.40;;;2.90;73.00;;;;;;4978573;28;20026;-64
2023/12/08 00:48:26;;;;;;;39.50;21.48;;;2.90;72.90;;;;;;4977871;28;20027;-64
2023/12/08 00:50:52;;;;;;;43.63;21.20;;;2.90;73.20;;;;;;4978136;28;20076;-64
2023/12/08 00:53:18;;;;;;;38.03;21.88;;;2.90;73.00;;;;;;4978709;28;20150;-64
2023/12/08 00:55:44;;;;;;;39.42;22.10;;;2.90;72.80;;;;;;4978132;28;20097;-64
2023/12/08 00:58:14;;;;;;;46.13;24.30;;;2.90;73.00;;;;;;4978622;28;20436;-64
2023/12/08 01:00:40;;;;;;;39.45;22.45;;;2.80;73.50;;;;;;4978485;28;20023;-64
2023/12/08 01:03:06;;;;;;;39.25;22.40;;;2.80;73.60;;;;;;4978236;28;20038;-64
2023/12/08 01:05:32;;;;;;;43.03;23.02;;;2.80;73.50;;;;;;4978456;28;20376;-64
2023/12/08 01:07:58;;;;;;;43.50;23.80;;;2.80;73.50;;;;;;4978095;28;20089;-63
2023/12/08 01:10:24;;;;;;;43.35;23.40;;;2.80;73.50;;;;;;4978293;28;20067;-64
2023/12/08 01:12:50;;;;;;;39.30;21.27;;;2.80;73.50;;;;;;4977812;28;20027;-64
2023/12/08 01:15:16;;;;;;;43.00;21.98;;;2.80;73.50;;;;;;4977791;28;20019;-64
2023/12/08 01:17:42;;;;;;;36.53;20.75;;;2.80;73.60;;;;;;4978239;28;20379;-65
2023/12/08 01:20:09;;;;;;;43.33;25.70;;;2.80;73.80;;;;;;4977544;28;20113;-64
2023/12/08 01:22:35;;;;;;;42.92;23.42;;;2.90;73.60;;;;;;4977601;28;20034;-65
2023/12/08 01:25:03;;;;;;;43.60;22.58;;;2.90;73.30;;;;;;4977552;28;20038;-64
2023/12/08 01:27:28;;;;;;;35.47;21.38;;;2.90;73.40;;;;;;4977528;28;20447;-64
2023/12/08 01:29:54;;;;;;;39.30;20.40;;;2.80;73.60;;;;;;4977387;28;20101;-64
2023/12/08 01:32:20;;;;;;;39.85;20.95;;;2.80;73.60;;;;;;4977415;28;20033;-64
2023/12/08 01:34:46;;;;;;;34.63;20.08;;;2.80;73.60;;;;;;4977379;28;20098;-64
2023/12/08 01:37:12;;;;;;;36.22;19.17;;;2.80;73.80;;;;;;4977616;28;20058;-64
2023/12/08 01:39:38;;;;;;;38.70;21.13;;;2.80;73.60;;;;;;4977614;28;20037;-64
2023/12/08 01:42:04;;;;;;;39.05;20.77;;;2.80;73.70;;;;;;4977492;28;20470;-64
2023/12/08 01:44:30;;;;;;;36.92;20.10;;;2.80;73.90;;;;;;4977671;28;20031;-65
2023/12/08 01:46:57;;;;;;;44.03;24.58;;;2.80;74.00;;;;;;4977165;28;20341;-64
2023/12/08 01:49:23;;;;;;;41.15;22.98;;;2.90;73.80;;;;;;4977027;28;20046;-64
2023/12/08 01:51:50;;;;;;;42.95;22.60;;;2.80;73.50;;;;;;4977608;28;20058;-64
2023/12/08 01:54:17;;;;;;;40.88;21.42;;;2.80;73.50;;;;;;4977027;28;20019;-64
2023/12/08 01:56:43;;;;;;;41.80;21.88;;;2.80;73.80;;;;;;4977008;28;20587;-64
2023/12/08 01:59:09;;;;;;;42.63;21.73;;;2.80;73.60;;;;;;4976416;28;20019;-64
2023/12/08 02:01:36;;;;;;;44.63;22.40;;;2.70;73.60;;;;;;4977263;28;20038;-64
2023/12/08 02:04:03;;;;;;;38.63;21.10;;;2.70;73.70;;;;;;4976800;28;20031;-64
2023/12/08 02:06:29;;;;;;;39.85;21.67;;;2.70;73.60;;;;;;4976983;28;20026;-64
2023/12/08 02:08:55;;;;;;;34.67;20.63;;;2.70;73.30;;;;;;4977173;28;20165;-64
2023/12/08 02:11:21;;;;;;;43.67;22.13;;;2.70;73.20;;;;;;4976968;28;20440;-64
2023/12/08 02:13:47;;;;;;;43.83;21.50;;;2.70;73.30;;;;;;4976765;28;20030;-64
2023/12/08 02:16:25;;;;;;;40.60;21.55;;;2.60;73.50;;;;;;4976835;28;20022;-64
2023/12/08 02:18:52;;;;;;;36.92;20.05;;;2.60;73.60;;;;;;4977004;28;20027;-65
2023/12/08 02:21:19;;;;;;;35.75;19.77;;;2.60;73.80;;;;;;4976441;28;20061;-64
2023/12/08 02:23:49;;;;;;;37.80;19.45;;;2.60;73.70;;;;;;4976923;28;20047;-64
2023/12/08 02:26:18;;;;;;;39.38;19.98;;;2.60;73.80;;;;;;4976886;28;20026;-64
2023/12/08 02:28:45;;;;;;;36.90;19.15;;;2.70;73.80;;;;;;4976515;28;20487;-64
2023/12/08 02:31:15;;;;;;;40.10;20.48;;;2.70;73.70;;;;;;4976534;28;20110;-64
2023/12/08 02:33:45;;;;;;;36.40;19.73;;;2.70;73.70;;;;;;4976803;28;20053;-64
2023/12/08 02:36:16;;;;;;;37.05;20.90;;;2.70;73.50;;;;;;4976759;28;20081;-64
2023/12/08 02:38:46;;;;;;;38.38;20.20;;;2.60;73.50;;;;;;4976743;28;20061;-64
2023/12/08 02:41:12;;;;;;;33.45;19.13;;;2.70;73.60;;;;;;4976289;28;20026;-64
2023/12/08 02:43:38;;;;;;;36.90;20.40;;;2.60;73.50;;;;;;4976934;28;20385;-64
2023/12/08 02:46:04;;;;;;;38.45;21.38;;;2.60;73.10;;;;;;4976915;28;20035;-64
2023/12/08 02:48:30;;;;;;;38.90;20.20;;;2.60;73.20;;;;;;4976577;28;20459;-64
2023/12/08 02:50:56;;;;;;;36.42;20.05;;;2.50;72.90;;;;;;4976780;28;20023;-64
2023/12/08 02:53:22;;;;;;;37.58;21.50;;;2.50;72.70;;;;;;4976859;28;20027;-64
2023/12/08 02:55:48;;;;;;;34.15;19.38;;;2.50;73.10;;;;;;4976222;28;20027;-64
2023/12/08 02:58:13;;;;;;;36.42;19.45;;;2.50;73.00;;;;;;4976328;28;20037;-64
2023/12/08 03:00:39;;;;;;;36.55;20.08;;;2.50;72.80;;;;;;4976350;28;20038;-64
2023/12/08 03:03:05;;;;;;;40.35;20.70;;;2.40;72.90;;;;;;4976283;28;20027;-64
2023/12/08 03:05:31;;;;;;;37.03;20.65;;;2.40;73.20;;;;;;4976752;28;20034;-64
2023/12/08 03:07:57;;;;;;;34.40;20.92;;;2.40;73.30;;;;;;4976459;28;20030;-64
2023/12/08 03:10:23;;;;;;;34.03;20.08;;;2.40;73.10;;;;;;4977807;28;20027;-64
2023/12/08 03:12:49;;;;;;;34.35;18.90;;;2.30;72.70;;;;;;4980501;28;20447;-64
2023/12/08 03:15:15;;;;;;;34.17;17.98;;;2.30;72.40;;;;;;4979947;28;20019;-64
2023/12/08 03:17:42;;;;;;;35.75;19.27;;;2.20;72.50;;;;;;4979956;28;20027;-64
2023/12/08 03:20:09;;;;;;;32.58;17.25;;;2.10;72.90;;;;;;4979744;28;20054;-64
2023/12/08 03:22:35;;;;;;;36.97;18.17;;;2.20;73.30;;;;;;4979785;28;20018;-64
2023/12/08 03:25:01;;;;;;;34.35;18.20;;;2.20;73.40;;;;;;4979785;28;20106;-65
2023/12/08 03:27:27;;;;;;;33.28;17.77;;;2.20;73.20;;;;;;4979656;28;20321;-64
2023/12/08 03:29:53;;;;;;;32.17;17.70;;;2.20;73.30;;;;;;4979598;28;20030;-64
2023/12/08 03:32:19;;;;;;;34.33;19.50;;;2.20;73.50;;;;;;4979631;28;20041;-64
2023/12/08 03:34:45;;;;;;;35.88;18.63;;;2.20;73.60;;;;;;4979839;28;20018;-64
2023/12/08 03:37:11;;;;;;;35.67;18.73;;;2.20;73.50;;;;;;4980041;28;20359;-64
2023/12/08 03:39:36;;;;;;;32.42;18.25;;;2.20;73.40;;;;;;4979489;28;20456;-64
2023/12/08 03:42:02;;;;;;;31.30;17.65;;;2.30;73.50;;;;;;4980010;28;20062;-64
2023/12/08 03:44:28;;;;;;;31.27;17.55;;;2.30;73.70;;;;;;4979451;28;20082;-64
2023/12/08 03:46:54;;;;;;;34.53;19.05;;;2.30;73.70;;;;;;4979395;28;20062;-64
2023/12/08 03:49:20;;;;;;;28.52;16.20;;;2.30;73.20;;;;;;4979733;28;20066;-64
2023/12/08 03:51:46;;;;;;;26.27;13.30;;;2.40;73.50;;;;;;4979804;28;20122;-64
2023/12/08 03:54:12;;;;;;;27.08;14.73;;;2.40;73.60;;;;;;4979783;28;20085;-64
2023/12/08 03:56:38;;;;;;;19.50;11.07;;;2.50;73.40;;;;;;4979126;28;20387;-64
2023/12/08 03:59:04;;;;;;;22.77;12.23;;;2.50;72.80;;;;;;4979115;28;20098;-64
2023/12/08 04:01:30;;;;;;;30.08;14.48;;;2.60;72.70;;;;;;4979137;28;20031;-64
2023/12/08 04:03:56;;;;;;;23.85;12.23;;;2.60;72.80;;;;;;4979358;28;20030;-64
2023/12/08 04:06:22;;;;;;;20.40;11.63;;;2.60;72.70;;;;;;4979325;28;20037;-64
2023/12/08 04:08:47;;;;;;;20.48;10.82;;;2.70;72.50;;;;;;4978924;28;20131;-64
2023/12/08 04:11:13;;;;;;;25.02;12.35;;;2.80;72.50;;;;;;4978900;28;20019;-64
2023/12/08 04:13:40;;;;;;;22.67;11.10;;;2.80;72.70;;;;;;4978935;28;20019;-64
2023/12/08 04:16:06;;;;;;;19.83;10.23;;;2.90;72.70;;;;;;4978808;28;20487;-64
2023/12/08 04:18:34;;;;;;;19.88;11.32;;;2.90;72.10;;;;;;4978776;28;20022;-64
2023/12/08 04:21:00;;;;;;;18.15;8.68;;;2.90;71.70;;;;;;4978528;28;20059;-64
2023/12/08 04:23:26;;;;;;;20.63;9.38;;;2.90;71.70;;;;;;4961053;28;20041;-64
2023/12/08 04:25:52;;;;;;;19.88;10.20;;;2.90;71.70;;;;;;4979198;28;20439;-64
2023/12/08 04:28:18;;;;;;;18.33;10.48;;;2.90;71.60;;;;;;4978560;28;20023;-64
2023/12/08 04:30:44;;;;;;;16.50;8.80;;;2.90;71.70;;;;;;4978530;28;20077;-64
2023/12/08 04:33:10;;;;;;;17.30;9.57;;;3.00;72.20;;;;;;4978574;28;20019;-64
2023/12/08 04:35:35;;;;;;;19.08;10.60;;;3.00;72.40;;;;;;4978750;28;20404;-64
2023/12/08 04:38:02;;;;;;;18.48;9.93;;;3.00;72.40;;;;;;4978464;28;20470;-64
2023/12/08 04:40:27;;;;;;;16.27;8.93;;;3.10;72.60;;;;;;4978268;28;20062;-64
2023/12/08 04:42:53;;;;;;;18.88;10.52;;;3.10;72.70;;;;;;4978384;28;20026;-64
2023/12/08 04:45:19;;;;;;;16.75;9.45;;;3.10;72.90;;;;;;4978323;28;20436;-63
2023/12/08 04:47:45;;;;;;;19.80;10.77;;;3.10;72.80;;;;;;4978438;28;20027;-64
2023/12/08 04:50:11;;;;;;;17.83;10.15;;;3.10;72.50;;;;;;4978172;28;20027;-64
2023/12/08 04:52:37;;;;;;;17.30;9.70;;;3.10;72.70;;;;;;4978230;28;20330;-64
2023/12/08 04:55:04;;;;;;;16.05;9.80;;;3.10;72.50;;;;;;4961484;28;20094;-64
2023/12/08 04:57:32;;;;;;;18.83;10.18;;;3.10;72.90;;;;;;4977989;28;20043;-64
2023/12/08 04:59:58;;;;;;;16.80;9.60;;;3.10;73.00;;;;;;4977931;28;20077;-64
2023/12/08 05:02:24;;;;;;;15.88;9.25;;;3.10;73.00;;;;;;4978510;28;20035;-64
2023/12/08 05:04:51;;;;;;;18.40;9.93;;;3.10;72.90;;;;;;4978248;28;20122;-64
2023/12/08 05:07:17;;;;;;;19.73;10.10;;;3.10;73.00;;;;;;4978474;28;20034;-64
2023/12/08 05:09:42;;;;;;;19.75;9.45;;;3.10;72.90;;;;;;4977728;28;20066;-64
2023/12/08 05:12:08;;;;;;;18.08;9.32;;;3.10;73.00;;;;;;4978341;28;20447;-64
2023/12/08 05:14:34;;;;;;;18.88;10.77;;;3.10;73.00;;;;;;4977806;28;20034;-64
2023/12/08 05:17:00;;;;;;;17.50;9.60;;;3.10;73.10;;;;;;4978014;28;20019;-64
2023/12/08 05:19:26;;;;;;;18.63;10.57;;;3.10;72.80;;;;;;4977841;28;20035;-64
2023/12/08 05:21:52;;;;;;;18.08;10.48;;;3.10;72.70;;;;;;4978207;28;20321;-64
2023/12/08 05:24:18;;;;;;;21.10;10.45;;;3.10;72.80;;;;;;4978117;28;20337;-64
2023/12/08 05:26:44;;;;;;;16.42;9.00;;;3.10;72.70;;;;;;4977548;28;20037;-64
2023/12/08 05:29:10;;;;;;;17.23;9.50;;;3.10;72.80;;;;;;4977635;28;20428;-64
2023/12/08 05:31:36;;;;;;;16.10;9.10;;;3.10;72.60;;;;;;4977973;28;20440;-64
2023/12/08 05:34:02;;;;;;;18.55;9.88;;;3.10;72.40;;;;;;4976993;28;20061;-64
2023/12/08 05:36:28;;;;;;;16.30;9.10;;;3.00;72.40;;;;;;4960324;28;20031;-64
2023/12/08 05:38:54;;;;;;;15.45;8.93;;;3.00;71.90;;;;;;4977308;28;20329;-64
2023/12/08 05:41:20;;;;;;;14.85;8.63;;;3.00;72.40;;;;;;4977215;28;20110;-64
2023/12/08 05:43:46;;;;;;;15.38;8.45;;;3.00;72.30;;;;;;4977223;28;20455;-64
2023/12/08 05:46:13;;;;;;;15.75;8.75;;;3.00;72.30;;;;;;4960156;28;20337;-64
2023/12/08 05:48:39;;;;;;;18.13;9.38;;;2.90;72.50;;;;;;4977010;28;20483;-64
2023/12/08 05:51:05;;;;;;;18.00;9.20;;;2.90;72.80;;;;;;4977069;28;20054;-64
2023/12/08 05:53:32;;;;;;;16.10;8.70;;;2.90;72.70;;;;;;4977291;28;20027;-64
2023/12/08 05:55:58;;;;;;;16.33;8.95;;;2.90;72.70;;;;;;4977569;28;20034;-64
2023/12/08 05:58:24;;;;;;;16.40;8.88;;;2.90;72.70;;;;;;4977040;28;20139;-64
2023/12/08 06:00:51;;;;;;;14.25;7.65;;;2.90;72.80;;;;;;4976842;28;20069;-64
2023/12/08 06:03:17;;;;;;;16.40;8.52;;;3.00;72.60;;;;;;4977191;28;20034;-64
2023/12/08 06:05:43;;;;;;;17.58;8.02;;;2.90;72.50;;;;;;4976929;28;20030;-64
2023/12/08 06:08:09;;;;;;;16.75;9.05;;;2.90;72.60;;;;;;4976761;28;20035;-64
2023/12/08 06:10:35;;;;;;;15.48;8.27;;;2.90;72.90;;;;;;4976941;28;20352;-64
2023/12/08 06:13:01;;;;;;;15.52;8.52;;;3.00;72.80;;;;;;4977272;28;20057;-64
2023/12/08 06:15:27;;;;;;;14.07;8.68;;;3.00;73.00;;;;;;4976789;28;20443;-64
2023/12/08 06:17:53;;;;;;;15.82;8.98;;;2.90;73.20;;;;;;4977214;28;20518;-64
2023/12/08 06:20:19;;;;;;;14.85;8.15;;;3.00;73.10;;;;;;4976560;28;20057;-64
2023/12/08 06:22:45;;;;;;;16.35;8.52;;;3.00;73.30;;;;;;4977174;28;20023;-64
2023/12/08 06:25:11;;;;;;;16.35;9.00;;;3.00;73.20;;;;;;4976652;28;20034;-64
2023/12/08 06:27:37;;;;;;;14.52;8.18;;;3.00;73.30;;;;;;4976609;28;20448;-64
2023/12/08 06:30:04;;;;;;;15.27;8.00;;;3.00;73.20;;;;;;4976381;28;20445;-64
2023/12/08 06:32:29;;;;;;;15.10;8.60;;;3.10;73.10;;;;;;4976788;28;20045;-64
2023/12/08 06:34:56;;;;;;;17.33;8.35;;;3.10;73.00;;;;;;4976501;28;20436;-64
2023/12/08 06:37:22;;;;;;;14.75;8.23;;;3.00;72.80;;;;;;4976506;28;20035;-65
2023/12/08 06:39:48;;;;;;;18.90;8.45;;;3.00;72.90;;;;;;4976768;28;20086;-64
2023/12/08 06:42:13;;;;;;;15.80;8.43;;;3.00;72.70;;;;;;4976985;28;20031;-64
2023/12/08 06:44:39;;;;;;;15.38;8.68;;;3.00;72.90;;;;;;4976935;28;20042;-64
2023/12/08 06:47:06;;;;;;;15.10;7.65;;;3.10;72.70;;;;;;4980736;28;20344;-64
2023/12/08 06:49:32;;;;;;;15.18;7.13;;;3.00;72.60;;;;;;4980361;28;20114;-64
2023/12/08 06:51:58;;;;;;;16.83;8.02;;;3.10;72.70;;;;;;4980666;28;20042;-64
2023/12/08 06:54:24;;;;;;;13.73;7.47;;;3.10;72.70;;;;;;4980421;28;20023;-64
2023/12/08 06:56:50;;;;;;;14.13;7.25;;;3.10;72.70;;;;;;4980373;28;20037;-64
2023/12/08 06:59:16;;;;;;;15.30;6.70;;;3.20;72.70;;;;;;4980785;28;20050;-64
2023/12/08 07:01:42;;;;;;;14.05;6.97;;;3.30;72.70;;;;;;4980228;28;20476;-64
2023/12/08 07:04:09;;;;;;;11.02;6.22;;;3.30;72.70;;;;;;4980177;28;20040;-64
2023/12/08 07:06:35;;;;;;;13.82;6.72;;;3.40;72.50;;;;;;4980049;28;20376;-63
2023/12/08 07:09:01;;;;;;;11.38;6.47;;;3.50;72.20;;;;;;4979932;28;20074;-64
2023/12/08 07:11:27;;;;;;;11.60;7.10;;;3.60;71.90;;;;;;4980552;28;20034;-64
2023/12/08 07:13:53;;;;;;;16.17;6.68;;;3.70;71.90;;;;;;4980534;28;20023;-64
2023/12/08 07:16:19;;;;;;;10.63;6.28;;;3.80;71.70;;;;;;4980429;28;20054;-64
2023/12/08 07:21:10;;;;;;;13.13;6.95;;;3.90;71.60;;;;;;4979652;28;20058;-63
2023/12/08 07:23:36;;;;;;;15.07;8.60;;;4.00;71.90;;;;;;4979845;28;20381;-63
2023/12/08 07:26:04;;;;;;;14.48;7.88;;;4.00;71.80;;;;;;4980259;28;20030;-64
2023/12/08 07:28:30;;;;;;;18.08;9.55;;;4.00;71.70;;;;;;4979616;28;20023;-64
2023/12/08 07:30:57;;;;;;;17.02;9.02;;;4.00;71.30;;;;;;4979532;28;20076;-64
2023/12/08 07:33:23;;;;;;;15.27;8.88;;;4.00;71.40;;;;;;4979971;28;20019;-64
2023/12/08 07:35:49;;;;;;;17.10;9.40;;;4.10;71.60;;;;;;4979841;28;20030;-64
2023/12/08 07:38:18;;;;;;;16.20;9.23;;;4.10;71.70;;;;;;4979489;28;20051;-64
2023/12/08 07:40:45;;;;;;;16.15;8.27;;;4.10;72.00;;;;;;4979528;28;20160;-64
2023/12/08 07:43:12;;;;;;;20.00;10.05;;;4.10;72.10;;;;;;4979421;28;20035;-64
2023/12/08 07:45:38;;;;;;;14.95;8.75;;;4.10;71.90;;;;;;4979699;28;20022;-64
2023/12/08 07:48:04;;;;;;;18.85;8.57;;;4.10;71.70;;;;;;4979292;28;20057;-64
2023/12/08 07:50:30;;;;;;;16.30;8.40;;;4.10;72.00;;;;;;4979282;28;20054;-64
2023/12/08 07:52:57;;;;;;;15.18;8.77;;;4.20;71.90;;;;;;4979187;28;20470;-64
2023/12/08 07:55:23;;;;;;;14.18;8.63;;;4.20;72.00;;;;;;4979510;28;20031;-65
2023/12/08 07:57:48;;;;;;;14.68;8.30;;;4.20;72.20;;;;;;4978174;28;20408;-64
2023/12/08 08:00:15;;;;;;;15.85;7.63;;;4.20;72.20;;;;;;4979103;28;20023;-64
2023/12/08 08:02:41;;;;;;;17.63;8.80;;;4.20;72.20;;;;;;4979418;28;20029;-64
2023/12/08 08:05:07;;;;;;;14.52;9.10;;;4.30;72.30;;;;;;4961994;28;20113;-64
2023/12/08 08:07:33;;;;;;;16.48;9.40;;;4.40;72.40;;;;;;4979216;28;20047;-64
2023/12/08 08:09:59;;;;;;;17.48;11.27;;;4.40;72.30;;;;;;4978714;28;20074;-64
2023/12/08 08:12:25;;;;;;;32.97;18.92;;;4.40;72.50;;;;;;4979453;28;20073;-64
2023/12/08 08:14:51;;;;;;;27.90;16.13;;;4.40;72.60;;;;;;4978919;28;20073;-64
2023/12/08 08:17:17;;;;;;;21.05;13.43;;;4.50;72.50;;;;;;4978901;28;20023;-65
2023/12/08 08:19:43;;;;;;;22.10;11.60;;;4.60;72.40;;;;;;4978751;28;20170;-64
2023/12/08 08:22:09;;;;;;;22.33;13.32;;;4.60;72.30;;;;;;4979078;28;20462;-64
2023/12/08 08:24:35;;;;;;;27.92;16.08;;;4.60;72.30;;;;;;4978734;28;20022;-64
2023/12/08 08:27:01;;;;;;;28.40;16.92;;;4.70;72.30;;;;;;4979202;28;20110;-64
2023/12/08 08:29:27;;;;;;;27.48;16.83;;;4.70;72.30;;;;;;4978563;28;20145;-64
2023/12/08 08:31:53;;;;;;;27.88;15.57;;;4.80;72.30;;;;;;4978493;28;20090;-64
2023/12/08 08:34:19;;;;;;;25.10;15.90;;;4.80;72.20;;;;;;4961435;28;20030;-64
2023/12/08 08:36:45;;;;;;;24.08;14.25;;;4.80;72.20;;;;;;4978751;28;20030;-64
2023/12/08 08:39:12;;;;;;;25.40;15.43;;;4.90;72.50;;;;;;4978416;28;20098;-64
2023/12/08 08:41:38;;;;;;;30.48;17.98;;;4.90;72.50;;;;;;4978410;28;20443;-64
2023/12/08 08:44:04;;;;;;;29.90;18.52;;;4.90;72.40;;;;;;4978936;28;20105;-63
2023/12/08 08:46:30;;;;;;;23.35;15.13;;;5.00;72.30;;;;;;4978609;28;20039;-64
2023/12/08 08:48:56;;;;;;;25.48;15.50;;;5.00;72.20;;;;;;4978193;28;20034;-64
2023/12/08 08:51:23;;;;;;;24.00;15.05;;;5.10;72.30;;;;;;4978201;28;20400;-65
2023/12/08 08:53:50;;;;;;;28.42;15.43;;;5.10;72.10;;;;;;4978931;28;20031;-64
2023/12/08 08:56:16;;;;;;;24.80;14.40;;;5.10;72.00;;;;;;4978498;28;20122;-64
2023/12/08 08:58:42;;;;;;;26.35;15.95;;;5.10;72.30;;;;;;4978122;28;20406;-64
2023/12/08 09:01:08;;;;;;;26.67;14.75;;;5.20;72.40;;;;;;4978239;28;20113;-64
2023/12/08 09:03:34;;;;;;;19.98;13.15;;;5.20;72.60;;;;;;4978052;28;20111;-65
2023/12/08 09:06:00;;;;;;;23.40;14.40;;;5.20;72.70;;;;;;4977990;28;20038;-64
2023/12/08 09:08:26;;;;;;;23.50;14.20;;;5.30;72.60;;;;;;4977942;28;20029;-64
2023/12/08 09:10:53;;;;;;;24.33;14.30;;;5.30;72.60;;;;;;4978363;28;20077;-64
2023/12/08 09:13:21;;;;;;;25.98;14.35;;;5.30;72.70;;;;;;4977759;28;20370;-64
2023/12/08 09:15:47;;;;;;;22.13;13.45;;;5.30;72.70;;;;;;4977658;28;20039;-64
2023/12/08 09:18:13;;;;;;;24.83;14.93;;;5.40;72.90;;;;;;4977771;28;20102;-64
2023/12/08 09:20:39;;;;;;;23.20;14.73;;;5.40;73.00;;;;;;4977533;28;20179;-64
2023/12/08 09:23:05;;;;;;;22.45;14.00;;;5.40;73.20;;;;;;4977630;28;20031;-64
2023/12/08 09:25:32;;;;;;;20.02;12.40;;;5.50;73.30;;;;;;4977589;28;20113;-64
2023/12/08 09:27:58;;;;;;;18.13;11.27;;;5.50;73.10;;;;;;4977434;28;20070;-64
2023/12/08 09:30:24;;;;;;;19.25;12.00;;;5.60;73.20;;;;;;4977561;28;20023;-64
2023/12/08 09:32:53;;;;;;;17.25;11.73;;;5.60;73.10;;;;;;4960514;28;20061;-64
2023/12/08 09:35:19;;;;;;;18.42;10.90;;;5.70;72.90;;;;;;4977437;28;20061;-64
2023/12/08 09:37:45;;;;;;;20.67;12.60;;;5.80;72.70;;;;;;4977657;28;20097;-64
2023/12/08 09:40:17;;;;;;;20.27;11.13;;;5.80;72.60;;;;;;4977752;28;20420;-64
2023/12/08 09:42:49;;;;;;;23.38;13.93;;;5.90;72.50;;;;;;4977795;28;20027;-64
2023/12/08 09:45:16;;;;;;;21.00;12.60;;;5.90;72.50;;;;;;4977491;28;20401;-64
2023/12/08 09:47:46;;;;;;;25.17;15.45;;;5.90;72.50;;;;;;4977477;28;20033;-64
2023/12/08 09:50:12;;;;;;;23.17;13.35;;;6.00;72.70;;;;;;4977199;28;20034;-64
2023/12/08 09:52:40;;;;;;;19.67;11.48;;;6.00;72.70;;;;;;4977349;28;20019;-64
2023/12/08 09:55:07;;;;;;;17.77;10.07;;;6.10;72.40;;;;;;4977060;28;20102;-64
2023/12/08 09:57:37;;;;;;;20.20;10.48;;;6.20;72.00;;;;;;4976981;28;20027;-64
2023/12/08 10:00:13;;;;;;;17.00;8.93;;;6.30;70.10;;;;;;4976941;28;20552;-64
2023/12/08 10:02:43;;;;;;;14.63;7.93;;;6.30;70.00;;;;;;4977214;28;20113;-64
2023/12/08 10:05:12;;;;;;;15.25;7.57;;;6.40;70.10;;;;;;4977115;28;20440;-64
2023/12/08 10:07:43;;;;;;;11.70;7.57;;;6.40;69.80;;;;;;4976785;28;20356;-64
2023/12/08 10:10:10;;;;;;;13.95;8.18;;;6.50;69.30;;;;;;4976704;28;20034;-64
2023/12/08 10:12:37;;;;;;;20.02;9.02;;;6.60;69.70;;;;;;4959757;28;20023;-64
2023/12/08 10:15:08;;;;;;;14.70;8.40;;;6.70;69.70;;;;;;4976756;28;20038;-64
2023/12/08 10:17:34;;;;;;;20.05;11.75;;;6.80;69.40;;;;;;4976915;28;20023;-64
2023/12/08 10:20:10;;;;;;;20.80;12.48;;;6.90;69.70;;;;;;4959157;28;20376;-64
2023/12/08 10:22:58;;;;;;;20.45;11.35;;;6.90;69.70;;;;;;4976951;28;20329;-64
2023/12/08 10:25:26;;;;;;;17.73;10.50;;;7.00;69.80;;;;;;4977545;28;20057;-64
2023/12/08 10:27:55;;;;;;;19.05;10.18;;;7.10;69.80;;;;;;4976630;28;20392;-63
2023/12/08 10:33:20;;;;;;;15.93;9.05;;;7.20;69.50;;;;;;5161748;23;20078;-72
2023/12/08 10:35:47;;;;;;;15.90;8.27;;;7.30;69.20;;;;;;4976412;28;20333;-72
2023/12/08 10:38:17;;;;;;;14.60;8.30;;;7.40;68.70;;;;;;4976905;28;20049;-72
2023/12/08 10:40:47;;;;;;;13.27;7.50;;;7.50;68.30;;;;;;4976345;28;20043;-72
2023/12/08 10:43:28;;;;;;;14.93;8.57;;;7.60;68.10;;;;;;4976290;28;20428;-70
2023/12/08 10:45:55;;;;;;;14.65;7.60;;;7.80;67.80;;;;;;4976877;28;20019;-71
2023/12/08 10:48:23;;;;;;;16.13;8.90;;;7.90;67.60;;;;;;4976272;28;20027;-69
2023/12/08 10:50:53;;;;;;;14.40;8.25;;;7.90;67.10;;;;;;4959852;28;20069;-70
2023/12/08 10:53:20;;;;;;;18.23;8.90;;;8.10;67.10;;;;;;4976432;28;20023;-67
2023/12/08 10:56:06;;;;;;;15.38;8.60;;;8.20;67.20;;;;;;4976199;28;20033;-68
2023/12/08 10:58:36;;;;;;;15.68;8.68;;;8.30;67.10;;;;;;4977027;28;20034;-67
2023/12/08 11:01:06;;;;;;;14.73;7.95;;;8.40;66.80;;;;;;4976475;28;20041;-68
2023/12/08 11:03:34;;;;;;;15.70;8.57;;;8.50;66.10;;;;;;4976382;28;20041;-68
2023/12/08 11:06:25;;;;;;;16.08;8.30;;;8.70;66.10;;;;;;4976360;28;20027;-70
2023/12/08 11:08:56;;;;;;;14.55;8.55;;;8.80;65.90;;;;;;4976006;28;20042;-70
2023/12/08 11:11:26;;;;;;;18.60;9.68;;;8.90;65.40;;;;;;4976331;28;20034;-71
2023/12/08 11:14:03;;;;;;;14.73;8.95;;;8.90;64.50;;;;;;4976232;28;20090;-69
2023/12/08 11:16:54;;;;;;;17.75;9.85;;;9.10;64.60;;;;;;4959373;28;20037;-70
2023/12/08 11:19:21;;;;;;;16.42;9.68;;;9.10;63.20;;;;;;4975992;28;20045;-69
2023/12/08 11:21:48;;;;;;;15.90;8.73;;;9.20;62.50;;;;;;4976261;28;20122;-69
2023/12/08 11:24:15;;;;;;;15.85;8.38;;;9.20;62.40;;;;;;4975857;28;20050;-69
2023/12/08 11:27:11;;;;;;;15.70;8.25;;;9.30;62.60;;;;;;4975956;28;20136;-69
2023/12/08 11:29:40;;;;;;;13.95;8.00;;;9.40;61.50;;;;;;4975837;28;20058;-70
2023/12/08 11:32:41;;;;;;;15.07;8.88;;;9.40;61.60;;;;;;4977292;28;20038;-70
2023/12/08 11:35:12;;;;;;;14.07;8.07;;;9.40;58.30;;;;;;4962557;28;20031;-72
2023/12/08 11:37:39;;;;;;;12.85;7.68;;;9.40;60.60;;;;;;4979448;28;20027;-70
2023/12/08 11:40:10;;;;;;;12.93;7.45;;;9.50;59.90;;;;;;4962277;28;20452;-71
2023/12/08 11:42:47;;;;;;;15.15;8.02;;;9.50;60.00;;;;;;4979280;28;20455;-71
2023/12/08 11:45:13;;;;;;;13.18;7.25;;;9.50;58.40;;;;;;4962246;28;20031;-72
2023/12/08 11:47:41;;;;;;;16.10;8.27;;;9.50;59.10;;;;;;4979283;28;20046;-72
2023/12/08 11:50:10;;;;;;;13.88;7.65;;;9.40;58.90;;;;;;4979484;28;20066;-72
2023/12/08 11:52:37;;;;;;;16.90;9.23;;;9.40;58.20;;;;;;4979130;28;20471;-72
2023/12/08 11:55:16;;;;;;;17.63;8.38;;;9.40;56.80;;;;;;4979413;28;20048;-72
2023/12/08 11:58:03;;;;;;;14.85;7.97;;;9.40;58.40;;;;;;4962133;28;20026;-72
2023/12/08 12:00:32;;;;;;;14.63;8.00;;;9.40;59.30;;;;;;4979686;28;20054;-72
2023/12/08 12:02:59;;;;;;;17.58;8.30;;;9.40;59.10;;;;;;4978947;28;20022;-72
2023/12/08 12:05:28;;;;;;;14.63;7.60;;;9.40;59.30;;;;;;4979072;28;20031;-72
2023/12/08 12:07:56;;;;;;;13.43;7.88;;;9.40;59.20;;;;;;4946411;28;20159;-72
2023/12/08 12:10:26;;;;;;;12.48;7.85;;;9.40;55.90;;;;;;4979136;28;20435;-72
2023/12/08 12:13:04;;;;;;;13.82;7.43;;;9.40;57.40;;;;;;4979095;28;20041;-72
2023/12/08 12:15:33;;;;;;;13.65;7.93;;;9.40;58.50;;;;;;4979420;28;20027;-72
2023/12/08 12:18:03;;;;;;;16.17;7.65;;;9.40;58.50;;;;;;4979082;28;20038;-72
2023/12/08 12:20:36;;;;;;;14.27;8.73;;;9.40;59.20;;;;;;4979309;28;20553;-72
2023/12/08 12:23:02;;;;;;;12.70;7.80;;;9.40;58.20;;;;;;4978713;28;20019;-72
2023/12/08 12:25:28;;;;;;;12.88;7.25;;;9.40;58.60;;;;;;4961634;28;20041;-72
2023/12/08 12:27:55;;;;;;;15.90;8.55;;;9.40;59.50;;;;;;4978947;28;20023;-72
2023/12/08 12:30:22;;;;;;;14.75;8.32;;;9.40;60.10;;;;;;4978766;28;20062;-72
2023/12/08 12:32:48;;;;;;;15.65;8.02;;;9.50;60.30;;;;;;4978335;28;20042;-72
2023/12/08 12:35:15;;;;;;;14.00;8.55;;;9.50;60.30;;;;;;4978469;28;20040;-72
2023/12/08 12:37:41;;;;;;;29.63;14.73;;;9.50;60.40;;;;;;4978462;28;20015;-72
2023/12/08 12:40:08;;;;;;;30.02;16.95;;;9.50;59.80;;;;;;4978446;28;20069;-72
2023/12/08 12:42:42;;;;;;;20.70;12.05;;;9.50;60.30;;;;;;4977818;28;20071;-72
2023/12/08 12:45:25;;;;;;;16.10;9.90;;;9.50;60.50;;;;;;4978683;28;20090;-72
2023/12/08 12:47:59;;;;;;;20.95;12.60;;;9.50;60.90;;;;;;4978861;28;20078;-72